Time;durP1;ratioP1;P1;durP2;ratioP2;P2;SDS_P1;SDS_P2;PMS_P1;PMS_P2;Temp;Humidity;BMP_temperature;BMP_pressure;BME280_temperature;BME280_humidity;BME280_pressure;Samples;Min_cycle;Max_cycle;Signal;HPM_P1;HPM_P2
2021/10/18 00:00:05;;;;;;;0.70;0.60;;;;;;;8.56;100.00;-20915.19;4976908;28;20439;-73
2021/10/18 00:02:38;;;;;;;0.70;0.60;;;;;;;8.65;100.00;-20917.53;4976435;28;20452;-73
2021/10/18 00:05:09;;;;;;;0.70;0.70;;;;;;;8.59;100.00;-20916.03;4975658;28;20488;-73
2021/10/18 00:07:39;;;;;;;0.70;0.70;;;;;;;8.59;100.00;-20916.03;4973987;28;20500;-73
2021/10/18 00:10:11;;;;;;;0.70;0.60;;;;;;;8.55;100.00;-20914.91;4957550;28;20421;-74
2021/10/18 00:12:40;;;;;;;0.70;0.60;;;;;;;8.59;100.00;-20916.03;4957312;28;20894;-74
2021/10/18 00:15:11;;;;;;;0.70;0.60;;;;;;;8.45;100.00;-20912.13;4957346;28;20439;-74
2021/10/18 00:17:37;;;;;;;0.70;0.60;;;;;;;8.31;100.00;-20908.25;4963287;28;20483;-75
2021/10/18 00:20:09;;;;;;;0.70;0.60;;;;;;;8.08;100.00;-20902.16;4976694;28;20452;-74
2021/10/18 00:22:36;;;;;;;0.70;0.60;;;;;;;7.92;100.00;-20897.72;4976268;28;20463;-74
2021/10/18 00:25:05;;;;;;;0.70;0.63;;;;;;;7.81;100.00;-20894.66;4976520;28;20486;-74
2021/10/18 00:27:32;;;;;;;0.70;0.60;;;;;;;7.80;100.00;-20894.50;4975462;28;20429;-74
2021/10/18 00:30:00;;;;;;;0.80;0.70;;;;;;;7.73;100.00;-20892.56;4972368;28;20443;-74
2021/10/18 00:32:29;;;;;;;0.70;0.60;;;;;;;7.68;100.00;-20891.31;4970065;28;20483;-74
2021/10/18 00:35:00;;;;;;;1.27;1.20;;;;;;;7.65;100.00;-20890.34;4975196;28;20455;-74
2021/10/18 00:37:35;;;;;;;0.70;0.60;;;;;;;7.73;100.00;-20892.72;4974697;28;20838;-74
2021/10/18 00:40:07;;;;;;;0.70;0.60;;;;;;;7.71;100.00;-20892.16;4974993;28;20441;-74
2021/10/18 00:42:38;;;;;;;0.63;0.60;;;;;;;7.62;100.00;-20889.50;4959217;28;20467;-74
2021/10/18 00:45:12;;;;;;;0.90;0.90;;;;;;;7.64;100.00;-20890.22;4974873;28;20526;-74
2021/10/18 00:47:42;;;;;;;0.70;0.60;;;;;;;7.56;100.00;-20888.00;4974559;28;20929;-74
2021/10/18 00:50:17;;;;;;;0.70;0.60;;;;;;;7.56;100.00;-20887.84;4975135;28;20434;-74
2021/10/18 00:52:50;;;;;;;0.70;0.60;;;;;;;7.60;100.00;-20888.97;4974168;28;20531;-74
2021/10/18 00:55:30;;;;;;;0.70;0.60;;;;;;;7.52;100.00;-20886.75;4974888;28;20908;-74
2021/10/18 00:58:01;;;;;;;0.80;0.67;;;;;;;7.47;100.00;-20885.50;4974849;28;20412;-74
2021/10/18 01:00:31;;;;;;;0.70;0.70;;;;;;;7.54;100.00;-20887.44;4973746;28;20447;-74
2021/10/18 01:03:09;;;;;;;0.70;0.70;;;;;;;7.50;100.00;-20886.47;4958749;28;20514;-74
2021/10/18 01:05:45;;;;;;;0.70;0.60;;;;;;;7.51;100.00;-20886.59;4958495;28;20547;-74
2021/10/18 01:08:21;;;;;;;0.70;0.70;;;;;;;7.49;100.00;-20886.03;4972052;28;20463;-74
2021/10/18 01:10:57;;;;;;;0.70;0.60;;;;;;;7.50;100.00;-20886.47;4968670;28;20428;-74
2021/10/18 01:13:28;;;;;;;0.70;0.60;;;;;;;7.50;100.00;-20886.47;4970832;28;20425;-74
2021/10/18 01:16:05;;;;;;;0.70;0.70;;;;;;;7.48;100.00;-20885.78;4939505;29;20456;-74
2021/10/18 01:18:40;;;;;;;0.70;0.60;;;;;;;7.46;100.00;-20885.22;4955287;29;20491;-74
2021/10/18 01:21:12;;;;;;;0.70;0.70;;;;;;;7.42;100.00;-20884.25;4956344;28;20412;-74
2021/10/18 01:23:47;;;;;;;0.70;0.60;;;;;;;7.42;100.00;-20884.09;4955010;29;20486;-74
2021/10/18 01:26:20;;;;;;;0.70;0.60;;;;;;;7.43;100.00;-20884.38;4955789;28;20436;-74
2021/10/18 01:28:50;;;;;;;0.70;0.60;;;;;;;7.40;100.00;-20883.53;4988780;28;20441;-74
2021/10/18 01:31:22;;;;;;;0.70;0.60;;;;;;;7.51;100.00;-20886.59;4968402;28;20428;-74
2021/10/18 01:33:55;;;;;;;0.70;0.57;;;;;;;7.40;100.00;-20883.53;4974819;28;20430;-74
2021/10/18 01:36:26;;;;;;;0.70;0.63;;;;;;;7.45;100.00;-20884.94;4974285;28;20975;-74
2021/10/18 01:38:54;;;;;;;1.83;1.63;;;;;;;7.45;100.00;-20884.94;4974976;28;20448;-74
2021/10/18 01:41:21;;;;;;;0.70;0.60;;;;;;;7.36;100.00;-20882.56;4974801;28;20801;-74
2021/10/18 01:43:48;;;;;;;0.70;0.70;;;;;;;7.30;100.00;-20880.78;4974674;28;20463;-74
2021/10/18 01:46:15;;;;;;;0.70;0.60;;;;;;;7.26;100.00;-20879.81;4970075;28;20478;-74
2021/10/18 01:48:42;;;;;;;0.70;0.60;;;;;;;7.34;100.00;-20881.88;4956126;28;20439;-74
2021/10/18 01:51:10;;;;;;;0.70;0.60;;;;;;;7.28;100.00;-20880.34;4973615;28;20970;-74
2021/10/18 01:53:39;;;;;;;0.70;0.60;;;;;;;7.29;100.00;-20880.50;4974458;28;20458;-74
2021/10/18 01:56:06;;;;;;;0.70;0.60;;;;;;;7.21;100.00;-20878.53;4973645;28;20439;-74
2021/10/18 01:58:33;;;;;;;0.70;0.60;;;;;;;7.15;100.00;-20876.75;4974982;28;20489;-73
2021/10/18 02:01:01;;;;;;;0.70;0.60;;;;;;;7.06;100.00;-20874.25;4972579;28;20434;-73
2021/10/18 02:03:29;;;;;;;0.70;0.60;;;;;;;6.89;100.00;-20869.66;4974671;28;20827;-73
2021/10/18 02:05:57;;;;;;;0.70;0.60;;;;;;;6.82;100.00;-20867.84;4974201;28;20434;-73
2021/10/18 02:08:23;;;;;;;6.20;2.87;;;;;;;6.64;100.00;-20863.00;4973905;28;20995;-75
2021/10/18 02:10:52;;;;;;;0.70;0.60;;;;;;;6.55;100.00;-20860.47;4974928;28;20420;-74
2021/10/18 02:13:19;;;;;;;0.70;0.60;;;;;;;6.52;100.00;-20859.66;4974731;28;20418;-75
2021/10/18 02:15:47;;;;;;;0.70;0.60;;;;;;;6.50;100.00;-20859.25;4972959;28;20431;-75
2021/10/18 02:18:13;;;;;;;0.70;0.60;;;;;;;6.51;100.00;-20859.38;4974003;28;20479;-75
2021/10/18 02:20:40;;;;;;;0.70;0.60;;;;;;;6.49;100.00;-20858.81;4974444;28;20518;-75
2021/10/18 02:23:07;;;;;;;0.83;0.83;;;;;;;6.43;100.00;-20857.16;4974209;28;20481;-74
2021/10/18 02:25:34;;;;;;;0.70;0.60;;;;;;;6.39;100.00;-20856.03;4974485;28;20432;-74
2021/10/18 02:28:05;;;;;;;0.70;0.70;;;;;;;6.38;100.00;-20855.75;4989295;28;20438;-75
2021/10/18 02:30:32;;;;;;;0.70;0.70;;;;;;;6.34;100.00;-20854.78;4972828;28;20470;-74
2021/10/18 02:33:00;;;;;;;2.23;2.13;;;;;;;6.46;100.00;-20858.00;4974471;28;20447;-74
2021/10/18 02:35:26;;;;;;;0.70;0.70;;;;;;;6.55;100.00;-20860.47;4973203;28;20530;-74
2021/10/18 02:37:55;;;;;;;0.70;0.60;;;;;;;6.66;100.00;-20863.41;4966156;28;20823;-74
2021/10/18 02:40:22;;;;;;;0.70;0.60;;;;;;;6.73;100.00;-20865.34;4973473;28;20434;-73
2021/10/18 02:42:49;;;;;;;0.80;0.70;;;;;;;6.75;100.00;-20865.91;4973987;28;20505;-75
2021/10/18 02:45:17;;;;;;;0.70;0.60;;;;;;;6.80;100.00;-20867.28;4973818;28;20428;-75
2021/10/18 02:47:45;;;;;;;0.70;0.63;;;;;;;6.81;100.00;-20867.44;4974165;28;21004;-75
2021/10/18 02:50:12;;;;;;;0.70;0.70;;;;;;;6.89;100.00;-20869.66;4974178;28;20822;-74
2021/10/18 02:52:40;;;;;;;0.70;0.60;;;;;;;6.98;100.00;-20872.16;4973995;28;20458;-75
2021/10/18 02:55:07;;;;;;;0.70;0.60;;;;;;;6.97;100.00;-20871.88;4974404;28;20427;-75
2021/10/18 02:57:35;;;;;;;0.70;0.60;;;;;;;6.99;100.00;-20872.56;4974071;28;20494;-75
2021/10/18 03:00:04;;;;;;;0.70;0.60;;;;;;;7.13;100.00;-20876.31;4973599;28;21016;-74
2021/10/18 03:02:32;;;;;;;0.70;0.60;;;;;;;7.21;100.00;-20878.53;4987735;28;20459;-75
2021/10/18 03:05:00;;;;;;;0.70;0.60;;;;;;;7.11;100.00;-20875.78;4973355;28;20467;-75
2021/10/18 03:07:27;;;;;;;0.70;0.70;;;;;;;7.13;100.00;-20876.31;4972632;28;20475;-74
2021/10/18 03:09:54;;;;;;;0.70;0.60;;;;;;;7.14;100.00;-20876.59;4972852;28;20432;-74
2021/10/18 03:12:21;;;;;;;0.70;0.60;;;;;;;7.11;100.00;-20875.78;4973779;28;20459;-74
2021/10/18 03:14:50;;;;;;;0.87;0.87;;;;;;;7.19;100.00;-20877.84;4962494;28;20594;-75
2021/10/18 03:17:20;;;;;;;0.70;0.60;;;;;;;7.08;100.00;-20874.81;4954784;28;20908;-75
2021/10/18 03:19:51;;;;;;;0.70;0.60;;;;;;;7.01;100.00;-20873.00;4954352;28;20417;-74
2021/10/18 03:22:18;;;;;;;0.70;0.60;;;;;;;6.95;100.00;-20871.31;4954598;28;20584;-74
2021/10/18 03:24:45;;;;;;;0.70;0.60;;;;;;;6.90;100.00;-20870.06;4954476;28;20426;-74
2021/10/18 03:27:12;;;;;;;0.70;0.60;;;;;;;6.91;100.00;-20870.22;4958325;28;20443;-74
2021/10/18 03:29:40;;;;;;;0.70;0.67;;;;;;;6.82;100.00;-20867.72;4972614;28;20805;-73
2021/10/18 03:32:07;;;;;;;0.70;0.60;;;;;;;6.70;100.00;-20864.66;4977279;28;20459;-74
2021/10/18 03:34:34;;;;;;;0.70;0.70;;;;;;;6.73;100.00;-20865.50;4992532;28;20522;-73
2021/10/18 03:37:02;;;;;;;0.70;0.60;;;;;;;6.79;100.00;-20867.03;4975233;28;20474;-73
2021/10/18 03:39:30;;;;;;;0.70;0.60;;;;;;;6.86;100.00;-20868.81;4983556;28;20483;-73
2021/10/18 03:41:57;;;;;;;0.70;0.60;;;;;;;6.85;100.00;-20868.53;4976909;28;20844;-72
2021/10/18 03:44:24;;;;;;;0.70;0.60;;;;;;;6.88;100.00;-20869.38;4977515;28;20534;-72
2021/10/18 03:46:51;;;;;;;0.70;0.50;;;;;;;6.90;100.00;-20869.94;4976794;28;20525;-73
2021/10/18 03:49:18;;;;;;;0.70;0.60;;;;;;;6.88;100.00;-20869.38;4976718;28;20444;-73
2021/10/18 03:51:45;;;;;;;0.70;0.60;;;;;;;6.78;100.00;-20866.88;4976115;28;20426;-74
2021/10/18 03:54:14;;;;;;;0.70;0.60;;;;;;;6.79;100.00;-20867.03;4976409;28;20540;-74
2021/10/18 03:56:41;;;;;;;0.70;0.60;;;;;;;6.71;100.00;-20864.78;4976090;28;20442;-74
2021/10/18 03:59:09;;;;;;;0.97;0.87;;;;;;;6.70;100.00;-20864.50;4976999;28;20435;-74
2021/10/18 04:01:36;;;;;;;0.70;0.60;;;;;;;6.68;100.00;-20864.09;4977024;28;20435;-74
2021/10/18 04:04:03;;;;;;;0.70;0.60;;;;;;;6.66;100.00;-20863.53;4976602;28;20983;-73
2021/10/18 04:06:30;;;;;;;0.70;0.60;;;;;;;6.62;100.00;-20862.44;4976388;28;20448;-73
2021/10/18 04:08:57;;;;;;;0.70;0.60;;;;;;;6.58;100.00;-20861.31;4964589;28;20463;-73
2021/10/18 04:11:26;;;;;;;0.70;0.60;;;;;;;6.55;100.00;-20860.47;4975284;28;20526;-74
2021/10/18 04:13:57;;;;;;;0.70;0.60;;;;;;;6.57;100.00;-20860.91;4959880;28;20917;-73
2021/10/18 04:16:27;;;;;;;1.10;0.97;;;;;;;6.52;100.00;-20859.78;4975502;28;20522;-73
2021/10/18 04:18:55;;;;;;;0.70;0.60;;;;;;;6.45;100.00;-20857.72;4976557;28;20993;-73
2021/10/18 04:21:22;;;;;;;0.70;0.67;;;;;;;6.38;100.00;-20855.91;4975468;28;20467;-73
2021/10/18 04:23:48;;;;;;;0.70;0.60;;;;;;;6.38;100.00;-20855.91;4975303;28;20473;-73
2021/10/18 04:26:15;;;;;;;0.70;0.60;;;;;;;6.34;100.00;-20854.66;4974912;28;20203;-74
2021/10/18 04:28:44;;;;;;;0.70;0.60;;;;;;;6.42;100.00;-20857.00;4976363;28;20957;-73
2021/10/18 04:31:11;;;;;;;0.83;0.83;;;;;;;6.32;100.00;-20854.09;4976089;28;20184;-73
2021/10/18 04:33:38;;;;;;;0.70;0.60;;;;;;;6.18;100.00;-20850.47;4974459;28;20486;-74
2021/10/18 04:36:07;;;;;;;0.70;0.60;;;;;;;6.22;100.00;-20851.44;4976302;28;20460;-74
2021/10/18 04:38:35;;;;;;;0.70;0.60;;;;;;;6.26;100.00;-20852.72;4972533;28;20224;-73
2021/10/18 04:41:02;;;;;;;0.70;0.70;;;;;;;6.31;100.00;-20853.81;4976174;28;20503;-73
2021/10/18 04:43:31;;;;;;;2.23;1.43;;;;;;;6.35;100.00;-20854.94;4974951;28;20483;-75
2021/10/18 04:45:59;;;;;;;0.70;0.60;;;;;;;6.22;100.00;-20851.59;4974472;28;20486;-74
2021/10/18 04:48:26;;;;;;;0.70;0.60;;;;;;;6.19;100.00;-20850.75;4975325;28;20188;-75
2021/10/18 04:50:53;;;;;;;0.80;0.70;;;;;;;6.14;100.00;-20849.38;4976049;28;20823;-74
2021/10/18 04:53:20;;;;;;;0.70;0.70;;;;;;;6.14;100.00;-20849.38;4975350;28;20760;-73
2021/10/18 04:55:48;;;;;;;0.70;0.70;;;;;;;6.05;100.00;-20846.88;4990851;28;20766;-73
2021/10/18 04:58:15;;;;;;;1.17;1.07;;;;;;;6.01;100.00;-20845.75;4974694;28;20452;-75
2021/10/18 05:00:44;;;;;;;0.70;0.60;;;;;;;6.04;100.00;-20846.72;4990560;28;20446;-73
2021/10/18 05:03:13;;;;;;;0.70;0.60;;;;;;;6.25;100.00;-20852.28;4973597;28;20465;-73
2021/10/18 05:05:40;;;;;;;0.70;0.60;;;;;;;6.32;100.00;-20854.22;4974523;28;20496;-73
2021/10/18 05:08:10;;;;;;;0.70;0.70;;;;;;;6.41;100.00;-20856.59;4973709;28;20247;-74
2021/10/18 05:10:40;;;;;;;0.70;0.60;;;;;;;6.47;100.00;-20858.41;4975385;28;20955;-74
2021/10/18 05:13:09;;;;;;;0.70;0.60;;;;;;;6.47;100.00;-20858.25;4968411;28;20185;-75
2021/10/18 05:15:38;;;;;;;0.70;0.60;;;;;;;6.52;100.00;-20859.66;4975717;28;20432;-73
2021/10/18 05:18:06;;;;;;;0.70;0.70;;;;;;;6.56;100.00;-20860.63;4974583;28;20483;-73
2021/10/18 05:20:35;;;;;;;0.70;0.60;;;;;;;6.49;100.00;-20858.81;4975110;28;20497;-73
2021/10/18 05:23:03;;;;;;;0.70;0.70;;;;;;;6.57;100.00;-20860.91;4987990;28;20507;-73
2021/10/18 05:25:30;;;;;;;0.70;0.60;;;;;;;6.58;100.00;-20861.19;4955042;28;20452;-74
2021/10/18 05:27:57;;;;;;;0.70;0.60;;;;;;;6.64;100.00;-20863.00;4972818;28;20942;-73
2021/10/18 05:30:24;;;;;;;0.70;0.70;;;;;;;6.62;100.00;-20862.44;4974095;28;20197;-74
2021/10/18 05:32:52;;;;;;;0.70;0.60;;;;;;;6.54;100.00;-20860.22;4970160;28;20189;-74
2021/10/18 05:35:19;;;;;;;0.70;0.60;;;;;;;6.54;100.00;-20860.34;4973592;28;20200;-73
2021/10/18 05:37:48;;;;;;;0.70;0.60;;;;;;;6.45;100.00;-20857.84;4968257;28;20312;-73
2021/10/18 05:40:17;;;;;;;0.70;0.70;;;;;;;6.51;100.00;-20859.50;4954451;29;20491;-75
2021/10/18 05:42:44;;;;;;;0.70;0.60;;;;;;;6.51;100.00;-20859.38;4955845;28;20657;-73
2021/10/18 05:45:12;;;;;;;0.70;0.60;;;;;;;6.47;100.00;-20858.25;4971038;28;20281;-74
2021/10/18 05:47:54;;;;;;;0.70;0.67;;;;;;;6.44;100.00;-20857.44;4986695;28;20448;-74
2021/10/18 05:50:22;;;;;;;0.88;0.85;;;;;;;6.38;100.00;-20855.75;4975265;28;20420;-73
2021/10/18 05:52:51;;;;;;;0.70;0.60;;;;;;;6.49;100.00;-20858.81;4974092;28;20779;-73
2021/10/18 05:55:18;;;;;;;0.70;0.60;;;;;;;6.52;100.00;-20859.66;4974524;28;20199;-73
2021/10/18 05:57:50;;;;;;;1.00;1.00;;;;;;;6.54;100.00;-20860.34;4971284;28;20196;-74
2021/10/18 06:00:18;;;;;;;0.70;0.60;;;;;;;6.43;100.00;-20857.28;4973353;28;20828;-74
2021/10/18 06:02:45;;;;;;;0.70;0.65;;;;;;;6.39;100.00;-20856.03;4970249;28;20187;-74
2021/10/18 06:05:13;;;;;;;0.70;0.70;;;;;;;6.45;100.00;-20857.84;4971763;28;20212;-74
2021/10/18 06:07:39;;;;;;;0.70;0.60;;;;;;;6.45;100.00;-20857.72;4974870;28;20506;-73
2021/10/18 06:10:09;;;;;;;0.70;0.60;;;;;;;6.47;100.00;-20858.41;4973026;28;20189;-73
2021/10/18 06:12:37;;;;;;;0.80;0.80;;;;;;;6.51;100.00;-20859.38;4972936;28;20201;-73
2021/10/18 06:15:06;;;;;;;0.70;0.70;;;;;;;6.51;100.00;-20859.50;4973897;28;20196;-74
2021/10/18 06:17:33;;;;;;;0.70;0.60;;;;;;;6.53;100.00;-20859.94;4974137;28;20212;-73
2021/10/18 06:20:00;;;;;;;0.77;0.77;;;;;;;6.61;100.00;-20862.16;4973733;28;20212;-73
2021/10/18 06:22:29;;;;;;;0.70;0.60;;;;;;;6.67;100.00;-20863.81;4974474;28;20465;-73
2021/10/18 06:24:55;;;;;;;0.70;0.60;;;;;;;6.68;100.00;-20864.09;4973067;28;20467;-74
2021/10/18 06:27:24;;;;;;;0.60;0.57;;;;;;;6.66;100.00;-20863.41;4975298;28;20649;-74
2021/10/18 06:29:51;;;;;;;0.70;0.60;;;;;;;6.65;100.00;-20863.25;4954900;28;20564;-74
2021/10/18 06:32:18;;;;;;;0.70;0.60;;;;;;;6.73;100.00;-20865.50;4953908;29;20426;-74
2021/10/18 06:34:45;;;;;;;0.70;0.60;;;;;;;6.77;100.00;-20866.59;4969456;28;20491;-74
2021/10/18 06:37:13;;;;;;;0.70;0.60;;;;;;;6.89;100.00;-20869.66;4963112;28;20231;-73
2021/10/18 06:39:40;;;;;;;0.70;0.60;;;;;;;6.93;100.00;-20870.78;4974094;28;20521;-73
2021/10/18 06:42:09;;;;;;;0.70;0.60;;;;;;;7.04;100.00;-20873.81;4973952;28;20184;-74
2021/10/18 06:44:40;;;;;;;0.70;0.60;;;;;;;7.15;100.00;-20876.75;4974250;28;20299;-74
2021/10/18 06:47:08;;;;;;;0.70;0.60;;;;;;;7.24;100.00;-20879.38;4974349;28;20460;-74
2021/10/18 06:49:37;;;;;;;0.73;0.73;;;;;;;7.43;100.00;-20884.53;4972737;28;20204;-73
2021/10/18 06:52:05;;;;;;;0.70;0.60;;;;;;;7.49;100.00;-20886.19;4973496;28;20419;-73
2021/10/18 06:54:41;;;;;;;0.70;0.60;;;;;;;7.49;100.00;-20886.03;4972972;28;20535;-74
2021/10/18 06:57:08;;;;;;;1.23;1.13;;;;;;;7.58;100.00;-20888.53;4974059;28;20427;-74
2021/10/18 06:59:35;;;;;;;0.70;0.60;;;;;;;7.64;100.00;-20890.22;4972885;28;20434;-74
2021/10/18 07:02:04;;;;;;;0.70;0.70;;;;;;;7.65;100.00;-20890.50;4974232;28;20416;-74
2021/10/18 07:04:35;;;;;;;0.90;0.90;;;;;;;7.74;100.00;-20892.84;4972435;28;21081;-74
2021/10/18 07:07:02;;;;;;;0.70;0.60;;;;;;;7.78;100.00;-20893.81;4975938;28;20451;-73
2021/10/18 07:09:34;;;;;;;0.70;0.60;;;;;;;7.80;100.00;-20894.38;4975933;28;20995;-74
2021/10/18 07:12:02;;;;;;;0.70;0.50;;;;;;;7.88;100.00;-20896.75;4977873;28;20448;-74
2021/10/18 07:14:29;;;;;;;0.70;0.50;;;;;;;7.90;100.00;-20897.28;4977584;28;20994;-74
2021/10/18 07:16:56;;;;;;;0.70;0.60;;;;;;;7.89;100.00;-20897.00;4976961;28;20490;-74
2021/10/18 07:19:24;;;;;;;0.70;0.60;;;;;;;8.04;100.00;-20900.91;4976744;28;20434;-73
2021/10/18 07:21:52;;;;;;;0.70;0.60;;;;;;;8.11;100.00;-20902.97;4977123;28;20475;-73
2021/10/18 07:24:19;;;;;;;0.70;0.60;;;;;;;8.27;100.00;-20907.13;4977151;28;20874;-73
2021/10/18 07:26:50;;;;;;;0.70;0.60;;;;;;;8.44;100.00;-20911.88;4977063;28;20431;-73
2021/10/18 07:29:17;;;;;;;0.70;0.60;;;;;;;8.51;100.00;-20913.81;4972815;28;20445;-74
2021/10/18 07:31:44;;;;;;;0.70;0.60;;;;;;;8.70;100.00;-20918.94;4958353;28;20404;-73
2021/10/18 07:34:16;;;;;;;0.70;0.60;;;;;;;8.76;100.00;-20920.59;4957678;28;20425;-73
2021/10/18 07:36:49;;;;;;;0.70;0.60;;;;;;;8.80;100.00;-20921.56;4976801;28;20998;-74
2021/10/18 07:39:18;;;;;;;1.00;0.90;;;;;;;8.91;100.00;-20924.63;4972523;28;20481;-73
2021/10/18 07:41:46;;;;;;;0.70;0.60;;;;;;;8.92;100.00;-20924.91;4956684;28;20447;-73
2021/10/18 07:44:13;;;;;;;0.70;0.67;;;;;;;9.08;100.00;-20929.19;4963008;28;20897;-73
2021/10/18 07:46:40;;;;;;;0.70;0.70;;;;;;;9.13;100.00;-20930.56;4974455;28;20938;-73
2021/10/18 07:49:09;;;;;;;0.70;0.70;;;;;;;9.33;100.00;-20935.97;4976409;28;20456;-73
2021/10/18 07:51:36;;;;;;;0.70;0.60;;;;;;;9.46;100.00;-20939.56;4975871;28;20471;-73
2021/10/18 07:54:05;;;;;;;0.70;0.60;;;;;;;9.62;100.00;-20944.00;4976695;28;20486;-73
2021/10/18 07:56:32;;;;;;;3.23;1.73;;;;;;;9.81;100.00;-20949.00;4976913;28;20409;-73
2021/10/18 07:58:59;;;;;;;0.70;0.70;;;;;;;9.90;100.00;-20951.50;4956386;28;20529;-73
2021/10/18 08:01:26;;;;;;;0.70;0.70;;;;;;;9.99;100.00;-20953.97;4975730;28;20769;-73
2021/10/18 08:03:53;;;;;;;0.70;0.60;;;;;;;10.00;100.00;-20954.13;4975204;28;20484;-73
2021/10/18 08:06:20;;;;;;;0.70;0.60;;;;;;;9.97;100.00;-20953.28;4976270;28;20478;-73
2021/10/18 08:08:50;;;;;;;1.20;1.10;;;;;;;10.02;100.00;-20954.69;4976061;28;20503;-73
2021/10/18 08:11:19;;;;;;;1.00;0.87;;;;;;;10.04;100.00;-20955.22;4976732;28;20923;-73
2021/10/18 08:13:47;;;;;;;0.70;0.57;;;;;;;10.12;100.00;-20957.56;4976904;28;20440;-73
2021/10/18 08:16:14;;;;;;;1.47;1.37;;;;;;;10.19;100.00;-20959.25;4963235;28;20477;-72
2021/10/18 08:18:41;;;;;;;0.70;0.60;;;;;;;10.25;100.00;-20960.91;4955034;29;20432;-73
2021/10/18 08:21:10;;;;;;;0.70;0.50;;;;;;;10.42;100.00;-20965.63;4979616;28;20466;-73
2021/10/18 08:23:38;;;;;;;0.70;0.60;;;;;;;10.59;100.00;-20970.19;4974904;28;20481;-73
2021/10/18 08:26:06;;;;;;;0.70;0.60;;;;;;;10.70;100.00;-20973.22;4975990;28;20419;-74
2021/10/18 08:28:34;;;;;;;0.70;0.67;;;;;;;10.77;100.00;-20975.03;4976194;28;20428;-73
2021/10/18 08:31:11;;;;;;;0.70;0.63;;;;;;;10.95;100.00;-20980.00;4976770;28;20833;-72
2021/10/18 08:33:38;;;;;;;0.90;0.80;;;;;;;11.06;100.00;-20983.03;4975132;28;20449;-73
2021/10/18 08:36:06;;;;;;;1.77;1.67;;;;;;;11.16;100.00;-20985.53;4974719;28;20813;-73
2021/10/18 08:38:53;;;;;;;0.70;0.60;;;;;;;11.41;100.00;-20992.44;4975714;28;20477;-74
2021/10/18 08:46:37;;;;;;;0.70;0.60;;;;;;;11.88;100.00;-21005.16;4976343;28;20470;-73
2021/10/18 08:49:04;;;;;;;1.23;1.13;;;;;;;12.19;100.00;-21013.56;4971798;28;20964;-73
2021/10/18 08:51:31;;;;;;;0.70;0.60;;;;;;;12.38;100.00;-21018.69;4975057;28;20443;-73
2021/10/18 08:53:58;;;;;;;0.70;0.60;;;;;;;12.62;100.00;-21025.03;4974894;28;20490;-74
2021/10/18 08:56:45;;;;;;;0.80;0.80;;;;;;;13.16;100.00;-21039.66;4967064;28;20438;-73
2021/10/18 08:59:16;;;;;;;0.70;0.70;;;;;;;13.68;100.00;-21053.84;4971520;28;20519;-73
2021/10/18 09:01:45;;;;;;;0.70;0.70;;;;;;;14.32;100.00;-21071.06;4975455;28;20415;-72
2021/10/18 09:04:20;;;;;;;0.70;0.60;;;;;;;14.50;100.00;-21075.88;4974113;28;20466;-73
2021/10/18 09:06:48;;;;;;;1.30;1.20;;;;;;;14.22;100.00;-21068.31;4989660;28;20511;-73
2021/10/18 09:09:19;;;;;;;0.80;0.80;;;;;;;13.67;100.00;-21053.44;4974715;28;20449;-72
2021/10/18 09:11:47;;;;;;;0.70;0.70;;;;;;;14.29;100.00;-21070.09;4973546;28;20987;-73
2021/10/18 09:14:16;;;;;;;0.80;0.80;;;;;;;14.40;100.00;-21073.28;4973766;28;20765;-72
2021/10/18 09:16:45;;;;;;;0.80;0.70;;;;;;;14.38;100.00;-21072.59;4973819;28;20456;-73
2021/10/18 09:19:17;;;;;;;0.77;0.70;;;;;;;14.55;100.00;-21077.28;4974601;28;20526;-73
2021/10/18 09:21:45;;;;;;;1.20;1.10;;;;;;;14.95;100.00;-21088.13;4975101;28;20795;-74
2021/10/18 09:24:16;;;;;;;0.70;0.63;;;;;;;14.71;100.00;-21081.53;4974632;28;20480;-73
2021/10/18 09:26:45;;;;;;;0.80;0.70;;;;;;;14.82;100.00;-21084.41;4968412;28;20432;-73
2021/10/18 09:29:14;;;;;;;2.67;2.53;;;;;;;14.58;100.00;-21078.09;4973309;28;20438;-74
2021/10/18 09:31:56;;;;;;;0.70;0.60;;;;;;;14.94;100.00;-21087.72;4973381;28;20946;-74
2021/10/18 09:34:30;;;;;;;0.77;0.70;;;;;;;15.12;100.00;-21092.53;4972934;28;20423;-74
2021/10/18 09:37:04;;;;;;;1.40;1.30;;;;;;;15.38;100.00;-21099.69;4970110;28;21018;-74
2021/10/18 09:39:31;;;;;;;1.10;1.00;;;;;;;15.01;100.00;-21089.50;4972709;28;20434;-74
2021/10/18 09:42:02;;;;;;;0.70;0.70;;;;;;;15.85;100.00;-21112.19;4989640;28;20472;-74
2021/10/18 10:55:52;;;;;;;0.80;0.70;;;;;;;15.96;100.00;-21115.09;4973333;28;20462;-74
2021/10/18 10:58:53;;;;;;;0.80;0.67;;;;;;;15.59;100.00;-21105.31;4988483;28;20416;-73
2021/10/18 11:01:45;;;;;;;0.83;0.83;;;;;;;15.25;100.00;-21096.13;4973349;28;20538;-74
2021/10/18 11:04:47;;;;;;;0.70;0.67;;;;;;;14.89;100.00;-21086.34;4972219;28;20822;-73
2021/10/18 11:07:20;;;;;;;0.70;0.60;;;;;;;14.82;100.00;-21084.56;4970848;28;20449;-73
2021/10/18 11:09:49;;;;;;;0.70;0.60;;;;;;;15.00;100.00;-21089.25;4978465;28;20446;-73
2021/10/18 11:12:22;;;;;;;0.80;0.80;;;;;;;15.10;100.00;-21092.00;4973807;28;20462;-73
2021/10/18 11:14:53;;;;;;;0.80;0.70;;;;;;;15.70;100.00;-21108.22;4988769;28;20761;-73
2021/10/18 11:17:20;;;;;;;1.30;1.20;;;;;;;16.09;100.00;-21118.81;4973893;28;20795;-73
2021/10/18 11:19:55;;;;;;;0.80;0.70;;;;;;;16.65;100.00;-21133.75;4974296;28;20427;-73
2021/10/18 11:22:33;;;;;;;0.70;0.60;;;;;;;17.00;100.00;-21143.22;4973520;28;20497;-74
2021/10/18 11:25:03;;;;;;;0.80;0.70;;;;;;;16.97;100.00;-21142.28;4973607;28;20458;-73
2021/10/18 11:27:32;;;;;;;0.70;0.60;;;;;;;16.83;100.00;-21138.56;4974666;28;20421;-73
2021/10/18 11:30:03;;;;;;;3.37;1.30;;;;;;;16.95;100.00;-21141.72;4968897;28;20440;-73
2021/10/18 11:32:31;;;;;;;0.80;0.80;;;;;;;16.91;100.00;-21140.78;4954717;28;20546;-73
2021/10/18 11:35:08;;;;;;;0.70;0.70;;;;;;;17.10;100.00;-21145.97;4954667;28;20424;-73
2021/10/18 11:37:53;;;;;;;0.70;0.70;;;;;;;17.26;100.00;-21150.22;4962729;28;20497;-73
2021/10/18 11:40:23;;;;;;;1.20;1.03;;;;;;;16.92;100.00;-21140.91;4972649;28;20439;-73
2021/10/18 11:42:52;;;;;;;0.73;0.70;;;;;;;16.72;100.00;-21135.56;4963813;28;20481;-73
2021/10/18 11:45:22;;;;;;;0.70;0.60;;;;;;;17.11;100.00;-21146.13;4973088;28;20554;-73
2021/10/18 11:47:50;;;;;;;0.80;0.70;;;;;;;17.05;100.00;-21144.47;4971826;28;20487;-73
2021/10/18 11:50:22;;;;;;;1.23;1.13;;;;;;;17.04;100.00;-21144.19;4973745;28;20416;-74
2021/10/18 11:52:52;;;;;;;0.70;0.60;;;;;;;16.93;100.00;-21141.19;4990084;28;20522;-75
2021/10/18 11:55:24;;;;;;;0.77;0.67;;;;;;;17.02;100.00;-21143.66;4974640;28;20513;-74
2021/10/18 11:57:52;;;;;;;0.80;0.70;;;;;;;17.23;100.00;-21149.28;4973781;28;20440;-74
2021/10/18 12:00:27;;;;;;;0.80;0.70;;;;;;;17.49;100.00;-21156.25;4974341;28;20430;-74
2021/10/18 12:02:59;;;;;;;0.80;0.70;;;;;;;17.45;100.00;-21155.16;4974992;28;20459;-74
2021/10/18 12:05:33;;;;;;;1.10;1.00;;;;;;;17.28;100.00;-21150.66;4974164;28;20478;-74
2021/10/18 12:08:00;;;;;;;0.70;0.60;;;;;;;17.46;100.00;-21155.59;4973793;28;20502;-74
2021/10/18 12:10:29;;;;;;;0.70;0.60;;;;;;;17.37;100.00;-21153.25;4976471;28;20439;-75
2021/10/18 12:13:08;;;;;;;0.80;0.70;;;;;;;17.25;100.00;-21149.97;4975518;28;20484;-74
2021/10/18 12:15:47;;;;;;;0.90;0.90;;;;;;;17.49;100.00;-21156.41;4973006;28;20427;-74
2021/10/18 12:18:17;;;;;;;0.90;0.83;;;;;;;17.76;100.00;-21163.66;4973594;28;20455;-74
2021/10/18 12:20:48;;;;;;;0.80;0.80;;;;;;;17.84;100.00;-21165.72;4975916;28;20417;-74
2021/10/18 12:23:21;;;;;;;0.87;0.83;;;;;;;17.85;100.00;-21166.00;4976073;28;21030;-75
2021/10/18 12:25:55;;;;;;;0.80;0.70;;;;;;;17.79;100.00;-21164.50;4974320;28;20489;-74
2021/10/18 12:28:28;;;;;;;2.93;1.73;;;;;;;17.77;100.00;-21163.94;4999608;28;20538;-74
2021/10/18 12:30:59;;;;;;;0.80;0.70;;;;;;;18.01;100.00;-21170.25;4976503;28;20783;-74
2021/10/18 12:33:37;;;;;;;1.20;1.10;;;;;;;18.01;100.00;-21170.25;4975763;28;20458;-74
2021/10/18 12:36:05;;;;;;;2.00;1.90;;;;;;;18.30;100.00;-21178.06;4973443;28;20480;-73
2021/10/18 12:38:36;;;;;;;0.80;0.80;;;;;;;18.28;100.00;-21177.66;4976229;28;20918;-73
2021/10/18 12:41:15;;;;;;;0.70;0.60;;;;;;;17.79;100.00;-21164.34;4974365;28;20436;-73
2021/10/18 12:43:43;;;;;;;0.70;0.70;;;;;;;17.68;100.00;-21161.34;4976649;28;20836;-73
2021/10/18 12:46:38;;;;;;;0.80;0.70;;;;;;;17.94;100.00;-21168.34;4974362;28;20474;-74
2021/10/18 12:49:07;;;;;;;0.70;0.70;;;;;;;17.80;100.00;-21164.78;4973010;28;20476;-73